createdAt,value
2017-06-18T00:01:39.655Z,15.90
2017-06-18T00:04:07.875Z,17.57
2017-06-18T00:06:36.194Z,17.87
2017-06-18T00:09:05.555Z,17.70
2017-06-18T00:11:34.167Z,17.97
2017-06-18T00:14:02.855Z,18.90
2017-06-18T00:16:31.511Z,18.90
2017-06-18T00:18:59.606Z,19.53
2017-06-18T00:21:27.938Z,21.00
2017-06-18T00:23:56.083Z,20.10
2017-06-18T00:26:24.174Z,18.93
2017-06-18T00:28:52.456Z,21.33
2017-06-18T00:31:20.690Z,23.50
2017-06-18T00:33:48.866Z,22.50
2017-06-18T00:36:17.091Z,24.43
2017-06-18T00:38:45.388Z,24.80
2017-06-18T00:41:13.539Z,24.50
2017-06-18T00:43:41.871Z,20.23
2017-06-18T00:46:09.982Z,20.27
2017-06-18T00:48:38.641Z,20.03
2017-06-18T00:51:07.494Z,20.80
2017-06-18T00:53:35.690Z,20.90
2017-06-18T00:56:03.883Z,18.10
2017-06-18T00:58:32.686Z,21.33
2017-06-18T01:01:00.878Z,18.93
2017-06-18T01:03:29.071Z,22.60
2017-06-18T01:05:57.943Z,21.67
2017-06-18T01:08:26.642Z,20.90
2017-06-18T01:10:54.830Z,20.80
2017-06-18T01:13:23.647Z,20.50
2017-06-18T01:15:51.799Z,22.37
2017-06-18T01:18:20.532Z,23.00
2017-06-18T01:20:48.862Z,26.70
2017-06-18T01:23:17.003Z,24.90
2017-06-18T01:25:46.636Z,23.63
2017-06-18T01:28:15.626Z,23.00
2017-06-18T01:30:44.519Z,19.30
2017-06-18T01:33:13.370Z,19.03
2017-06-18T01:35:42.031Z,17.33
2017-06-18T01:38:10.570Z,17.83
2017-06-18T01:40:39.364Z,16.20
2017-06-18T01:43:08.166Z,16.17
2017-06-18T01:45:36.977Z,15.53
2017-06-18T01:48:05.635Z,15.03
2017-06-18T01:50:34.507Z,14.37
2017-06-18T01:53:03.960Z,15.43
2017-06-18T01:55:32.650Z,14.07
2017-06-18T01:58:02.335Z,14.80
2017-06-18T02:00:31.131Z,16.00
2017-06-18T02:02:59.327Z,14.53
2017-06-18T02:05:28.179Z,13.37
2017-06-18T02:07:56.939Z,11.80
2017-06-18T02:10:25.140Z,12.70
2017-06-18T02:12:53.367Z,13.00
2017-06-18T02:15:21.555Z,12.40
2017-06-18T02:17:49.791Z,13.77
2017-06-18T02:20:18.155Z,12.37
2017-06-18T02:22:46.388Z,13.30
2017-06-18T02:25:14.578Z,14.33
2017-06-18T02:27:43.406Z,12.47
2017-06-18T02:30:11.601Z,11.63
2017-06-18T02:32:39.766Z,12.40
2017-06-18T02:35:08.810Z,13.00
2017-06-18T02:37:37.672Z,13.47
2017-06-18T02:40:05.771Z,13.27
2017-06-18T02:42:34.794Z,13.50
2017-06-18T02:45:02.938Z,13.57
2017-06-18T02:47:31.091Z,13.13
2017-06-18T02:49:59.411Z,13.90
2017-06-18T02:52:27.562Z,14.43
2017-06-18T02:54:55.751Z,13.00
2017-06-18T02:57:24.079Z,15.17
2017-06-18T02:59:52.175Z,12.70
2017-06-18T03:02:20.366Z,15.07
2017-06-18T03:04:48.695Z,13.00
2017-06-18T03:07:16.957Z,13.00
2017-06-18T03:09:45.331Z,13.57
2017-06-18T03:12:13.558Z,13.77
2017-06-18T03:14:41.738Z,13.57
2017-06-18T03:17:09.976Z,13.57
2017-06-18T03:19:38.335Z,14.60
2017-06-18T03:22:07.856Z,12.60
2017-06-18T03:24:36.854Z,13.80
2017-06-18T03:27:05.175Z,13.63
2017-06-18T03:29:33.367Z,13.63
2017-06-18T03:32:02.219Z,13.97
2017-06-18T03:34:30.551Z,14.23
2017-06-18T03:36:59.267Z,15.10
2017-06-18T03:39:28.051Z,15.80
2017-06-18T03:41:57.250Z,14.20
2017-06-18T03:44:27.484Z,14.17
2017-06-18T03:46:56.370Z,13.93
2017-06-18T03:49:25.287Z,14.47
2017-06-18T03:51:54.175Z,14.93
2017-06-18T03:54:23.123Z,15.77
2017-06-18T03:56:51.415Z,15.10
2017-06-18T03:59:20.675Z,14.37
2017-06-18T04:01:49.311Z,14.63
2017-06-18T04:04:18.958Z,13.30
2017-06-18T04:06:47.554Z,15.50
2017-06-18T04:09:16.188Z,16.40
2017-06-18T04:11:45.054Z,14.70
2017-06-18T04:14:13.894Z,13.87
2017-06-18T04:16:42.683Z,15.07
2017-06-18T04:19:11.063Z,15.90
2017-06-18T04:21:39.778Z,14.20
2017-06-18T04:24:08.594Z,13.70
2017-06-18T04:26:37.587Z,14.10
2017-06-18T04:29:05.782Z,13.57
2017-06-18T04:31:35.422Z,14.13
2017-06-18T04:34:03.772Z,14.03
2017-06-18T04:36:33.222Z,15.20
2017-06-18T04:39:01.875Z,13.40
2017-06-18T04:41:30.707Z,13.97
2017-06-18T04:43:58.779Z,13.10
2017-06-18T04:46:26.935Z,13.03
2017-06-18T04:48:55.307Z,13.43
2017-06-18T04:51:23.458Z,13.73
2017-06-18T04:53:51.687Z,12.53
2017-06-18T04:56:19.975Z,13.90
2017-06-18T04:58:48.175Z,13.57
2017-06-18T05:01:16.362Z,13.93
2017-06-18T05:03:44.711Z,14.30
2017-06-18T05:06:12.799Z,12.93
2017-06-18T05:08:42.130Z,14.80
2017-06-18T05:11:10.931Z,14.13
2017-06-18T05:13:39.779Z,14.40
2017-06-18T05:16:09.162Z,14.90
2017-06-18T05:18:38.127Z,14.68
2017-06-18T05:21:06.219Z,15.75
2017-06-18T05:23:34.315Z,15.50
2017-06-18T05:26:02.610Z,14.63
2017-06-18T05:28:30.723Z,15.27
2017-06-18T05:30:59.367Z,14.43
2017-06-18T05:33:27.679Z,14.13
2017-06-18T05:35:55.827Z,15.10
2017-06-18T05:38:23.976Z,15.27
2017-06-18T05:40:52.355Z,16.67
2017-06-18T05:43:20.499Z,14.47
2017-06-18T05:45:48.659Z,14.70
2017-06-18T05:48:17.191Z,14.30
2017-06-18T05:50:45.456Z,14.95
2017-06-18T05:53:13.614Z,13.77
2017-06-18T05:55:41.999Z,14.00
2017-06-18T05:58:10.250Z,12.80
2017-06-18T06:00:38.767Z,12.93
2017-06-18T06:03:07.731Z,12.55
2017-06-18T06:05:36.403Z,13.02
2017-06-18T06:08:05.169Z,11.93
2017-06-18T06:10:34.711Z,12.68
2017-06-18T06:13:03.406Z,12.00
2017-06-18T06:15:32.291Z,12.03
2017-06-18T06:18:01.289Z,13.13
2017-06-18T06:20:29.985Z,13.17
2017-06-18T06:22:58.500Z,12.63
2017-06-18T06:25:26.976Z,12.50
2017-06-18T06:27:55.753Z,12.13
2017-06-18T06:30:24.407Z,12.37
2017-06-18T06:32:53.231Z,13.77
2017-06-18T06:35:21.875Z,12.55
2017-06-18T06:37:50.107Z,12.93
2017-06-18T06:40:18.382Z,12.48
2017-06-18T06:42:46.743Z,11.23
2017-06-18T06:45:14.932Z,12.27
2017-06-18T06:47:43.815Z,12.32
2017-06-18T06:50:12.088Z,12.95
2017-06-18T06:52:40.639Z,10.70
2017-06-18T06:55:09.532Z,11.55
2017-06-18T06:57:38.208Z,11.15
2017-06-18T07:00:06.355Z,12.68
2017-06-18T07:02:35.082Z,12.45
2017-06-18T07:05:03.614Z,11.63
2017-06-18T07:07:33.279Z,11.90
2017-06-18T07:10:02.139Z,11.73
2017-06-18T07:12:30.979Z,13.32
2017-06-18T07:14:59.139Z,12.70
2017-06-18T07:17:27.382Z,12.80
2017-06-18T07:19:55.628Z,14.27
2017-06-18T07:22:23.762Z,13.50
2017-06-18T07:24:52.039Z,13.40
2017-06-18T07:27:20.199Z,14.37
2017-06-18T07:29:49.740Z,13.93
2017-06-18T07:32:18.035Z,12.83
2017-06-18T07:34:46.171Z,14.67
2017-06-18T07:37:14.834Z,13.20
2017-06-18T07:39:43.163Z,11.90
2017-06-18T07:42:11.833Z,13.87
2017-06-18T07:44:40.483Z,12.93
2017-06-18T07:47:09.518Z,13.80
2017-06-18T07:49:37.666Z,12.80
2017-06-18T07:52:05.983Z,12.33
2017-06-18T07:54:34.318Z,13.43
2017-06-18T07:57:02.459Z,13.43
2017-06-18T07:59:30.660Z,12.77
2017-06-18T08:01:58.940Z,13.20
2017-06-18T08:04:27.090Z,13.87
2017-06-18T08:06:55.194Z,12.70
2017-06-18T08:09:23.548Z,12.53
2017-06-18T08:11:51.787Z,13.40
2017-06-18T08:14:19.978Z,13.90
2017-06-18T08:16:48.267Z,13.27
2017-06-18T08:19:16.467Z,13.07
2017-06-18T08:21:45.000Z,12.97
2017-06-18T08:24:13.747Z,13.00
2017-06-18T08:26:42.500Z,12.00
2017-06-18T08:29:10.682Z,12.90
2017-06-18T08:31:39.763Z,13.23
2017-06-18T08:34:08.507Z,13.00
2017-06-18T08:36:43.486Z,14.23
2017-06-18T08:39:12.185Z,12.03
2017-06-18T08:41:40.859Z,12.37
2017-06-18T08:44:09.854Z,11.60
2017-06-18T08:46:38.643Z,13.53
2017-06-18T08:49:06.863Z,12.30
2017-06-18T08:51:35.755Z,12.50
2017-06-18T08:54:04.062Z,12.57
2017-06-18T08:56:33.041Z,12.43
2017-06-18T08:59:02.678Z,12.57
2017-06-18T09:01:31.478Z,11.20
2017-06-18T09:04:00.374Z,13.57
2017-06-18T09:06:29.370Z,12.87
2017-06-18T09:08:58.119Z,12.60
2017-06-18T09:11:27.655Z,13.30
2017-06-18T09:13:56.598Z,12.17
2017-06-18T09:16:24.826Z,14.17
2017-06-18T09:18:53.484Z,12.30
2017-06-18T09:21:23.191Z,12.77
2017-06-18T09:23:52.530Z,12.93
2017-06-18T09:26:21.327Z,13.53
2017-06-18T09:28:49.691Z,12.17
2017-06-18T09:31:18.330Z,13.03
2017-06-18T09:33:47.074Z,14.83
2017-06-18T09:36:16.171Z,13.70
2017-06-18T09:38:44.458Z,13.20
2017-06-18T09:41:12.679Z,14.47
2017-06-18T09:43:41.098Z,14.07
2017-06-18T09:46:09.275Z,14.50
2017-06-18T09:48:37.546Z,13.33
2017-06-18T09:51:05.939Z,11.97
2017-06-18T09:53:34.535Z,13.73
2017-06-18T09:56:03.382Z,13.07
2017-06-18T09:58:31.786Z,12.33
2017-06-18T10:01:00.534Z,12.70
2017-06-18T10:03:29.335Z,13.17
2017-06-18T10:05:58.991Z,12.07
2017-06-18T10:08:27.259Z,11.60
2017-06-18T10:10:55.439Z,12.47
2017-06-18T10:13:23.726Z,12.90
2017-06-18T10:15:51.909Z,12.10
2017-06-18T10:18:20.127Z,12.47
2017-06-18T10:20:48.592Z,14.43
2017-06-18T10:23:22.347Z,12.33
2017-06-18T10:25:50.574Z,12.97
2017-06-18T10:28:18.794Z,12.03
2017-06-18T10:30:46.910Z,12.13
2017-06-18T10:33:15.177Z,11.93
2017-06-18T10:35:43.833Z,12.27
2017-06-18T10:38:12.006Z,11.83
2017-06-18T10:40:40.538Z,12.60
2017-06-18T10:43:08.810Z,13.83
2017-06-18T10:45:37.029Z,12.47
2017-06-18T10:48:06.507Z,12.77
2017-06-18T10:50:34.679Z,11.60
2017-06-18T10:53:03.237Z,11.90
2017-06-18T10:55:31.499Z,12.50
2017-06-18T10:58:44.734Z,11.60
2017-06-18T11:01:13.831Z,11.93
2017-06-18T11:03:42.526Z,12.90
2017-06-18T11:06:11.487Z,13.23
2017-06-18T11:08:40.473Z,12.40
2017-06-18T11:11:09.807Z,11.60
2017-06-18T11:26:30.098Z,11.40
2017-06-18T11:28:58.323Z,11.87
2017-06-18T11:31:27.883Z,12.53
2017-06-18T11:34:03.227Z,12.97
2017-06-18T11:36:32.015Z,13.77
2017-06-18T11:39:00.607Z,12.47
2017-06-18T11:41:29.383Z,11.97
2017-06-18T11:43:57.638Z,12.50
2017-06-18T11:46:26.567Z,13.13
2017-06-18T11:48:55.338Z,12.70
2017-06-18T11:51:23.935Z,11.70
2017-06-18T11:53:52.678Z,11.93
2017-06-18T11:56:22.330Z,12.67
2017-06-18T11:58:51.330Z,13.07
2017-06-18T12:01:19.633Z,13.30
2017-06-18T12:03:47.992Z,11.90
2017-06-18T12:06:17.621Z,13.17
2017-06-18T12:08:45.799Z,12.43
2017-06-18T12:11:14.226Z,12.70
2017-06-18T12:13:42.620Z,14.17
2017-06-18T12:16:10.842Z,11.90
2017-06-18T12:18:39.186Z,12.77
2017-06-18T12:21:10.946Z,12.07
2017-06-18T12:23:39.926Z,12.63
2017-06-18T12:26:08.549Z,11.90
2017-06-18T12:28:37.198Z,13.33
2017-06-18T12:31:06.011Z,12.57
2017-06-18T12:33:34.219Z,12.93
2017-06-18T12:36:03.071Z,12.50
2017-06-18T12:38:31.454Z,12.97
2017-06-18T12:41:00.243Z,11.97
2017-06-18T12:43:28.609Z,14.23
2017-06-18T12:45:56.930Z,11.70
2017-06-18T12:48:25.146Z,12.80
2017-06-18T12:50:53.280Z,12.53
2017-06-18T12:53:21.650Z,14.20
2017-06-18T12:55:49.866Z,13.63
2017-06-18T12:58:18.143Z,12.57
2017-06-18T13:00:47.527Z,13.23
2017-06-18T13:03:15.694Z,13.10
2017-06-18T13:05:43.862Z,13.40
2017-06-18T13:08:12.203Z,12.27
2017-06-18T13:10:40.471Z,14.53
2017-06-18T13:13:08.698Z,13.30
2017-06-18T13:15:37.051Z,12.57
2017-06-18T13:18:05.563Z,14.30
2017-06-18T13:20:33.822Z,13.40
2017-06-18T13:23:02.209Z,13.87
2017-06-18T13:25:30.466Z,14.53
2017-06-18T13:27:58.678Z,13.40
2017-06-18T13:30:26.963Z,14.10
2017-06-18T13:32:55.240Z,13.80
2017-06-18T13:35:23.567Z,13.20
2017-06-18T13:37:51.864Z,14.00
2017-06-18T13:40:20.335Z,15.10
2017-06-18T13:42:49.126Z,15.03
2017-06-18T13:45:17.831Z,14.40
2017-06-18T13:47:47.310Z,15.33
2017-06-18T13:50:15.535Z,12.60
2017-06-18T13:52:43.834Z,14.53
2017-06-18T13:55:12.099Z,13.13
2017-06-18T13:57:40.874Z,12.10
2017-06-18T14:00:09.822Z,14.50
2017-06-18T14:02:38.770Z,15.10
2017-06-18T14:05:07.519Z,14.17
2017-06-18T14:07:36.615Z,15.07
2017-06-18T14:10:05.407Z,13.97
2017-06-18T14:12:33.570Z,14.53
2017-06-18T14:15:02.378Z,12.43
2017-06-18T14:17:31.363Z,14.03
2017-06-18T14:20:00.166Z,13.13
2017-06-18T14:22:28.970Z,14.77
2017-06-18T14:24:57.198Z,13.60
2017-06-18T14:27:26.167Z,14.73
2017-06-18T14:29:55.610Z,14.40
2017-06-18T14:32:24.259Z,13.63
2017-06-18T14:34:52.532Z,15.13
2017-06-18T14:37:22.250Z,16.50
2017-06-18T14:39:50.430Z,14.50
2017-06-18T14:42:18.787Z,14.97
2017-06-18T14:44:48.351Z,14.63
2017-06-18T14:47:16.578Z,15.77
2017-06-18T14:49:44.710Z,15.30
2017-06-18T14:52:13.036Z,16.73
2017-06-18T14:54:41.454Z,16.50
2017-06-18T14:57:09.631Z,15.63
2017-06-18T14:59:38.831Z,14.13
2017-06-18T15:02:07.083Z,15.97
2017-06-18T15:04:36.814Z,17.17
2017-06-18T15:07:05.103Z,15.30
2017-06-18T15:09:33.265Z,15.67
2017-06-18T15:12:01.443Z,17.10
2017-06-18T15:14:29.793Z,16.50
2017-06-18T15:16:58.014Z,15.90
2017-06-18T15:19:26.191Z,17.57
2017-06-18T15:21:54.535Z,15.60
2017-06-18T15:24:22.799Z,16.17
2017-06-18T15:26:51.026Z,16.00
2017-06-18T15:29:19.278Z,15.23
2017-06-18T15:31:47.495Z,14.50
2017-06-18T15:34:15.667Z,15.87
2017-06-18T15:36:43.967Z,16.60
2017-06-18T15:39:12.155Z,15.90
2017-06-18T15:41:40.346Z,17.13
2017-06-18T15:44:08.700Z,16.30
2017-06-18T15:46:37.565Z,16.97
2017-06-18T15:49:05.790Z,16.40
2017-06-18T15:51:36.131Z,16.30
2017-06-18T15:54:04.899Z,17.17
2017-06-18T15:56:34.566Z,17.37
2017-06-18T15:59:03.258Z,17.93
2017-06-18T16:01:32.906Z,18.03
2017-06-18T16:04:02.294Z,20.23
2017-06-18T16:06:31.351Z,17.27
2017-06-18T16:09:00.142Z,17.80
2017-06-18T16:11:28.722Z,17.40
2017-06-18T16:13:57.119Z,18.80
2017-06-18T16:16:25.847Z,18.07
2017-06-18T16:18:55.403Z,18.00
2017-06-18T16:21:24.291Z,18.50
2017-06-18T16:23:53.099Z,20.37
2017-06-18T16:26:21.623Z,18.13
2017-06-18T16:28:51.383Z,19.90
2017-06-18T16:31:20.170Z,18.10
2017-06-18T16:33:48.347Z,20.50
2017-06-18T16:36:17.231Z,19.90
2017-06-18T16:38:46.026Z,18.97
2017-06-18T16:41:14.922Z,18.23
2017-06-18T16:43:43.694Z,20.20
2017-06-18T16:46:12.334Z,20.50
2017-06-18T16:48:40.935Z,19.87
2017-06-18T16:51:10.580Z,20.10
2017-06-18T16:53:39.314Z,21.60
2017-06-18T16:56:08.122Z,19.57
2017-06-18T16:58:37.669Z,21.23
2017-06-18T17:01:06.418Z,20.00
2017-06-18T17:03:34.626Z,23.83
2017-06-18T17:06:03.327Z,25.67
2017-06-18T17:08:31.742Z,26.00
2017-06-18T17:11:00.327Z,23.70
2017-06-18T17:13:28.642Z,25.70
2017-06-18T17:15:56.898Z,26.30
2017-06-18T17:18:25.167Z,28.67
2017-06-18T17:20:53.566Z,34.00
2017-06-18T17:23:21.783Z,33.60
2017-06-18T17:25:50.003Z,32.77
2017-06-18T17:28:18.295Z,30.00
2017-06-18T17:30:46.462Z,27.40
2017-06-18T17:33:14.677Z,27.13
2017-06-18T17:35:43.394Z,26.57
2017-06-18T17:38:12.050Z,26.47
2017-06-18T17:40:40.847Z,22.80
2017-06-18T17:43:09.731Z,23.20
2017-06-18T17:45:38.486Z,22.97
2017-06-18T17:48:06.664Z,21.97
2017-06-18T17:50:35.019Z,22.00
2017-06-18T17:53:03.238Z,22.87
2017-06-18T17:55:31.514Z,22.70
2017-06-18T17:57:59.775Z,21.23
2017-06-18T18:00:28.047Z,23.33
2017-06-18T18:02:56.311Z,22.80
2017-06-18T18:05:24.651Z,23.03
2017-06-18T18:07:52.915Z,22.37
2017-06-18T18:10:21.270Z,21.27
2017-06-18T18:12:49.592Z,25.50
2017-06-18T18:15:17.798Z,29.10
2017-06-18T18:17:45.938Z,34.77
2017-06-18T18:20:14.724Z,34.87
2017-06-18T18:22:42.862Z,33.10
2017-06-18T18:25:11.287Z,35.50
2017-06-18T18:27:40.278Z,33.80
2017-06-18T18:30:09.170Z,27.10
2017-06-18T18:32:37.395Z,26.23
2017-06-18T18:35:06.839Z,25.30
2017-06-18T18:37:35.026Z,21.97
2017-06-18T18:40:03.923Z,21.90
2017-06-18T18:42:32.970Z,22.23
2017-06-18T18:45:02.355Z,22.00
2017-06-18T18:47:30.575Z,21.87
2017-06-18T18:49:59.431Z,21.40
2017-06-18T18:52:28.067Z,23.37
2017-06-18T18:54:56.239Z,22.23
2017-06-18T18:57:25.070Z,24.00
2017-06-18T18:59:53.937Z,23.30
2017-06-18T19:02:22.823Z,23.60
2017-06-18T19:04:51.183Z,24.63
2017-06-18T19:07:19.882Z,22.13
2017-06-18T19:09:48.683Z,23.70
2017-06-18T19:12:17.878Z,21.03
2017-06-18T19:14:46.770Z,22.73
2017-06-18T19:17:15.459Z,21.40
2017-06-18T19:19:43.754Z,21.67
2017-06-18T19:22:11.979Z,23.30
2017-06-18T19:24:40.196Z,24.13
2017-06-18T19:27:08.434Z,27.40
2017-06-18T19:29:37.091Z,29.00
2017-06-18T19:32:05.739Z,27.47
2017-06-18T19:34:34.083Z,32.60
2017-06-18T19:37:02.254Z,29.60
2017-06-18T19:39:31.691Z,32.10
2017-06-18T19:42:00.678Z,31.63
2017-06-18T19:44:29.282Z,35.57
2017-06-18T19:46:58.018Z,37.17
2017-06-18T19:49:26.363Z,41.80
2017-06-18T19:51:54.683Z,42.73
2017-06-18T19:54:23.014Z,43.10
2017-06-18T19:56:51.387Z,43.70
2017-06-18T19:59:19.593Z,42.50
2017-06-18T20:01:47.807Z,44.27
2017-06-18T20:04:16.831Z,42.37
2017-06-18T20:06:45.575Z,39.03
2017-06-18T20:09:15.015Z,40.77
2017-06-18T20:11:44.011Z,38.70
2017-06-18T20:14:13.015Z,39.70
2017-06-18T20:16:41.762Z,38.90
2017-06-18T20:19:11.343Z,40.30
2017-06-18T20:21:39.536Z,42.40
2017-06-18T20:24:07.718Z,45.20
2017-06-18T20:26:36.074Z,50.37
2017-06-18T20:29:04.239Z,48.83
2017-06-18T20:31:32.402Z,55.07
2017-06-18T20:34:00.739Z,49.33
2017-06-18T20:36:28.862Z,52.30
2017-06-18T20:38:57.138Z,48.50
2017-06-18T20:41:25.491Z,50.50
2017-06-18T20:43:53.722Z,46.83
2017-06-18T20:46:21.987Z,47.27
2017-06-18T20:48:50.279Z,45.30
2017-06-18T20:51:18.406Z,47.37
2017-06-18T20:53:46.626Z,46.10
2017-06-18T20:56:14.977Z,48.30
2017-06-18T20:58:43.098Z,51.60
2017-06-18T21:01:12.474Z,50.17
2017-06-18T21:03:41.314Z,47.00
2017-06-18T21:06:10.075Z,44.40
2017-06-18T21:08:38.247Z,42.07
2017-06-18T21:11:08.062Z,39.90
2017-06-18T21:13:37.515Z,42.80
2017-06-18T21:16:05.879Z,42.70
2017-06-18T21:18:34.603Z,40.80
2017-06-18T21:21:03.262Z,39.93
2017-06-18T21:23:32.054Z,46.60
2017-06-18T21:26:00.951Z,44.40
2017-06-18T21:28:29.639Z,43.80
2017-06-18T21:30:57.914Z,44.03
2017-06-18T21:33:26.703Z,44.37
2017-06-18T21:35:54.918Z,40.20
2017-06-18T21:38:23.502Z,39.60
2017-06-18T21:40:51.798Z,34.30
2017-06-18T21:43:21.046Z,30.40
2017-06-18T21:45:56.171Z,29.30
2017-06-18T21:48:24.970Z,31.93
2017-06-18T21:50:53.966Z,31.73
2017-06-18T21:53:22.918Z,35.87
2017-06-18T21:55:51.035Z,39.53
2017-06-18T21:58:19.258Z,40.60
2017-06-18T22:00:47.605Z,40.87
2017-06-18T22:03:16.267Z,41.40
2017-06-18T22:05:45.123Z,46.20
2017-06-18T22:08:14.766Z,42.50
2017-06-18T22:10:43.502Z,45.73
2017-06-18T22:13:12.311Z,39.83
2017-06-18T22:15:42.059Z,35.90
2017-06-18T22:18:10.958Z,39.27
2017-06-18T22:20:39.135Z,36.70
2017-06-18T22:23:07.451Z,39.23
2017-06-18T22:25:35.679Z,36.27
2017-06-18T22:28:03.943Z,33.07
2017-06-18T22:30:32.247Z,29.97
2017-06-18T22:33:00.871Z,28.33
2017-06-18T22:35:29.095Z,30.07
2017-06-18T22:38:03.350Z,29.70
2017-06-18T22:40:32.120Z,32.60
2017-06-18T22:43:00.963Z,32.80
2017-06-18T22:45:29.134Z,30.70
2017-06-18T22:47:57.759Z,34.40
2017-06-18T22:50:25.984Z,31.83
2017-06-18T22:52:54.283Z,35.90
2017-06-18T22:55:22.596Z,35.10
2017-06-18T22:57:50.784Z,39.27
2017-06-18T23:00:19.032Z,38.57
2017-06-18T23:02:47.166Z,43.13
2017-06-18T23:05:15.295Z,39.57
2017-06-18T23:07:43.583Z,47.77
2017-06-18T23:10:11.795Z,38.67
2017-06-18T23:12:40.007Z,38.40
2017-06-18T23:15:08.355Z,40.53
2017-06-18T23:17:36.547Z,36.80
2017-06-18T23:20:06.152Z,37.67
2017-06-18T23:22:36.499Z,35.47
2017-06-18T23:25:05.148Z,34.50
2017-06-18T23:27:33.891Z,32.27
2017-06-18T23:30:02.239Z,35.10
2017-06-18T23:32:31.739Z,33.80
2017-06-18T23:35:00.583Z,33.13
2017-06-18T23:37:28.884Z,34.60
2017-06-18T23:39:57.067Z,33.50
2017-06-18T23:42:25.932Z,34.83
2017-06-18T23:44:54.235Z,34.20
2017-06-18T23:47:22.887Z,32.97
2017-06-18T23:49:51.731Z,32.77
2017-06-18T23:52:21.423Z,30.97
2017-06-18T23:54:50.180Z,33.07
2017-06-18T23:57:18.862Z,33.77
2017-06-18T23:59:47.756Z,31.90
